createdAt,value
2023-01-20T00:00:26.437Z,2.40
2023-01-20T00:03:01.368Z,2.40
2023-01-20T00:05:36.262Z,2.50
2023-01-20T00:08:11.130Z,2.50
2023-01-20T00:10:46.079Z,2.50
2023-01-20T00:13:20.957Z,2.50
2023-01-20T00:15:55.872Z,2.50
2023-01-20T00:18:31.084Z,2.50
2023-01-20T00:21:09.378Z,2.50
2023-01-20T00:23:45.996Z,2.60
2023-01-20T00:26:24.035Z,2.50
2023-01-20T00:28:59.095Z,2.60
2023-01-20T00:31:36.166Z,2.60
2023-01-20T00:34:11.602Z,2.60
2023-01-20T00:36:46.485Z,2.60
2023-01-20T00:39:21.477Z,2.60
2023-01-20T00:41:56.364Z,2.60
2023-01-20T00:44:31.278Z,2.60
2023-01-20T00:47:06.263Z,2.60
2023-01-20T00:49:41.134Z,2.60
2023-01-20T00:52:18.724Z,2.60
2023-01-20T00:54:53.589Z,2.60
2023-01-20T00:57:28.479Z,2.60
2023-01-20T01:00:04.741Z,2.60
2023-01-20T01:02:40.116Z,2.70
2023-01-20T01:05:15.404Z,2.70
2023-01-20T01:07:50.323Z,2.70
2023-01-20T01:10:25.390Z,2.70
2023-01-20T01:13:02.457Z,2.70
2023-01-20T01:15:37.655Z,2.60
2023-01-20T01:18:12.518Z,2.70
2023-01-20T01:20:47.382Z,3.40
2023-01-20T01:23:22.363Z,2.70
2023-01-20T01:25:57.254Z,2.70
2023-01-20T01:28:32.156Z,2.70
2023-01-20T01:31:08.539Z,2.70
2023-01-20T01:33:43.739Z,2.80
2023-01-20T01:36:19.018Z,2.80
2023-01-20T01:38:59.087Z,2.80
2023-01-20T01:41:34.254Z,2.80
2023-01-20T01:44:12.405Z,2.80
2023-01-20T01:46:47.474Z,2.80
2023-01-20T01:49:29.462Z,2.90
2023-01-20T01:52:09.416Z,2.90
2023-01-20T01:54:45.611Z,2.90
2023-01-20T01:57:20.575Z,2.90
2023-01-20T01:59:55.466Z,2.90
2023-01-20T02:02:30.465Z,3.00
2023-01-20T02:05:06.051Z,3.00
2023-01-20T02:07:44.858Z,3.00
2023-01-20T02:10:19.741Z,3.00
2023-01-20T02:12:54.957Z,3.00
2023-01-20T02:16:18.497Z,3.00
2023-01-20T02:19:36.063Z,3.00
2023-01-20T02:22:53.791Z,2.90
2023-01-20T02:26:39.140Z,2.90
2023-01-20T02:29:48.813Z,2.90
2023-01-20T02:32:55.067Z,2.90
2023-01-20T02:35:41.780Z,2.90
2023-01-20T02:38:26.549Z,2.90
2023-01-20T02:41:37.900Z,2.90
2023-01-20T02:44:31.453Z,2.90
2023-01-20T02:47:59.141Z,2.90
2023-01-20T02:51:09.651Z,2.90
2023-01-20T02:53:51.258Z,2.90
2023-01-20T02:56:29.230Z,2.90
2023-01-20T02:59:11.151Z,2.90
2023-01-20T03:02:02.483Z,3.00
2023-01-20T03:04:51.353Z,2.90
2023-01-20T03:07:29.715Z,3.00
2023-01-20T03:10:10.213Z,3.00
2023-01-20T03:12:57.990Z,3.00
2023-01-20T03:15:47.031Z,3.00
2023-01-20T03:18:22.259Z,3.00
2023-01-20T03:20:59.772Z,3.00
2023-01-20T03:23:39.811Z,2.90
2023-01-20T03:26:17.750Z,2.90
2023-01-20T03:28:54.613Z,2.90
2023-01-20T03:31:39.751Z,2.90
2023-01-20T03:34:20.506Z,1.40
2023-01-20T03:36:56.492Z,2.70
2023-01-20T03:39:32.703Z,2.70
2023-01-20T03:42:25.323Z,2.70
2023-01-20T03:45:26.260Z,2.70
2023-01-20T03:48:18.811Z,2.70
2023-01-20T03:51:33.446Z,2.80
2023-01-20T03:54:13.487Z,2.70
2023-01-20T03:57:04.588Z,2.70
2023-01-20T03:59:42.316Z,2.70
2023-01-20T04:02:17.404Z,2.60
2023-01-20T04:04:54.017Z,2.60
2023-01-20T04:07:32.133Z,2.60
2023-01-20T04:10:12.270Z,2.50
2023-01-20T04:12:47.255Z,2.50
2023-01-20T04:15:23.411Z,2.50
2023-01-20T04:18:10.875Z,2.40
2023-01-20T04:20:51.767Z,2.40
2023-01-20T04:23:46.209Z,2.40
2023-01-20T04:26:21.145Z,2.40
2023-01-20T04:28:56.073Z,2.40
2023-01-20T04:31:31.647Z,2.40
2023-01-20T04:34:07.383Z,2.40
2023-01-20T04:36:42.846Z,2.30
2023-01-20T04:39:17.851Z,2.30
2023-01-20T04:41:52.813Z,2.30
2023-01-20T04:44:27.755Z,2.30
2023-01-20T04:47:02.840Z,2.20
2023-01-20T04:49:37.777Z,2.20
2023-01-20T04:52:12.785Z,2.20
2023-01-20T04:54:47.676Z,2.20
2023-01-20T04:57:22.536Z,2.20
2023-01-20T04:59:57.457Z,2.30
2023-01-20T05:02:32.385Z,2.30
2023-01-20T05:05:22.270Z,2.30
2023-01-20T05:07:57.288Z,2.40
2023-01-20T05:10:33.608Z,2.40
2023-01-20T05:13:08.478Z,2.40
2023-01-20T05:15:44.416Z,2.50
2023-01-20T05:18:19.438Z,2.50
2023-01-20T05:20:54.412Z,2.50
2023-01-20T05:23:29.343Z,2.50
2023-01-20T05:26:04.399Z,2.50
2023-01-20T05:28:39.467Z,2.50
2023-01-20T05:31:14.574Z,2.50
2023-01-20T05:33:49.588Z,2.50
2023-01-20T05:36:24.591Z,2.50
2023-01-20T05:38:59.436Z,2.50
2023-01-20T05:41:34.357Z,2.50
2023-01-20T05:44:09.343Z,2.50
2023-01-20T05:46:44.529Z,2.50
2023-01-20T05:49:19.492Z,2.50
2023-01-20T05:51:54.471Z,2.60
2023-01-20T05:54:29.328Z,2.50
2023-01-20T05:57:05.589Z,2.50
2023-01-20T05:59:40.488Z,2.50
2023-01-20T06:02:18.685Z,2.40
2023-01-20T06:04:53.655Z,2.40
2023-01-20T06:07:29.928Z,2.40
2023-01-20T06:10:05.256Z,2.40
2023-01-20T06:12:40.157Z,2.30
2023-01-20T06:15:15.262Z,2.30
2023-01-20T06:17:51.243Z,2.30
2023-01-20T06:20:26.158Z,2.30
2023-01-20T06:23:01.003Z,2.30
2023-01-20T06:25:35.850Z,2.20
2023-01-20T06:28:10.738Z,2.20
2023-01-20T06:30:45.614Z,2.20
2023-01-20T06:33:20.445Z,2.20
2023-01-20T06:35:56.996Z,2.20
2023-01-20T06:38:35.106Z,2.20
2023-01-20T06:41:11.219Z,2.20
2023-01-20T06:43:46.360Z,2.10
2023-01-20T06:46:22.294Z,2.10
2023-01-20T06:49:00.544Z,2.10
2023-01-20T06:51:35.583Z,2.10
2023-01-20T06:54:10.765Z,2.00
2023-01-20T06:56:45.971Z,2.00
2023-01-20T06:59:20.811Z,1.90
2023-01-20T07:01:55.739Z,1.90
2023-01-20T07:04:30.627Z,1.90
2023-01-20T07:07:05.475Z,1.90
2023-01-20T07:09:40.319Z,1.90
2023-01-20T07:12:15.266Z,2.00
2023-01-20T07:14:50.117Z,2.00
2023-01-20T07:17:24.979Z,2.10
2023-01-20T07:19:59.844Z,2.10
2023-01-20T07:22:34.681Z,2.10
2023-01-20T07:25:09.971Z,2.10
2023-01-20T07:27:44.842Z,2.20
2023-01-20T07:30:19.919Z,2.20
2023-01-20T07:32:54.784Z,2.20
2023-01-20T07:35:29.624Z,2.30
2023-01-20T07:38:04.585Z,2.30
2023-01-20T07:40:39.412Z,2.30
2023-01-20T07:43:14.342Z,2.30
2023-01-20T07:45:49.196Z,2.30
2023-01-20T07:48:25.599Z,2.30
2023-01-20T07:51:05.653Z,2.30
2023-01-20T07:53:50.867Z,2.40
2023-01-20T07:56:28.247Z,2.40
2023-01-20T07:59:03.654Z,2.40
2023-01-20T08:01:38.573Z,2.50
2023-01-20T08:04:14.301Z,2.60
2023-01-20T08:06:49.214Z,2.70
2023-01-20T08:09:24.186Z,2.80
2023-01-20T08:11:59.037Z,2.80
2023-01-20T08:14:34.745Z,2.90
2023-01-20T08:17:11.209Z,2.90
2023-01-20T08:19:46.100Z,3.00
2023-01-20T08:22:20.953Z,3.00
2023-01-20T08:24:55.907Z,3.00
2023-01-20T08:27:30.778Z,3.00
2023-01-20T08:30:06.543Z,3.10
2023-01-20T08:32:41.413Z,3.10
2023-01-20T08:35:16.712Z,3.10
2023-01-20T08:37:52.511Z,3.10
2023-01-20T08:40:27.555Z,3.10
2023-01-20T08:43:02.689Z,3.20
2023-01-20T08:45:37.652Z,3.20
2023-01-20T08:48:12.515Z,3.30
2023-01-20T08:50:47.358Z,3.40
2023-01-20T08:53:22.220Z,3.40
2023-01-20T08:55:59.927Z,3.40
2023-01-20T08:58:34.847Z,3.40
2023-01-20T09:01:15.820Z,3.40
2023-01-20T09:04:04.965Z,3.50
2023-01-20T09:06:50.544Z,3.50
2023-01-20T09:09:25.502Z,3.50
2023-01-20T09:12:00.341Z,3.50
2023-01-20T09:14:35.213Z,3.50
2023-01-20T09:17:10.089Z,3.50
2023-01-20T09:19:45.002Z,3.60
2023-01-20T09:22:19.908Z,3.60
2023-01-20T09:24:54.751Z,3.60
2023-01-20T09:27:29.609Z,3.70
2023-01-20T09:30:05.778Z,3.70
2023-01-20T09:32:40.644Z,3.80
2023-01-20T09:35:15.886Z,4.00
2023-01-20T09:38:09.275Z,4.10
2023-01-20T09:41:47.114Z,4.20
2023-01-20T09:44:49.076Z,4.20
2023-01-20T09:47:41.792Z,4.30
2023-01-20T09:50:59.907Z,4.40
2023-01-20T09:54:08.760Z,4.50
2023-01-20T09:56:48.037Z,4.70
2023-01-20T09:59:38.074Z,4.70
2023-01-20T10:02:22.527Z,4.80
2023-01-20T10:05:05.664Z,4.80
2023-01-20T10:07:56.224Z,4.80
2023-01-20T10:10:38.319Z,4.90
2023-01-20T10:13:36.471Z,4.90
2023-01-20T10:16:18.737Z,4.90
2023-01-20T10:19:10.662Z,4.80
2023-01-20T10:22:01.761Z,4.80
2023-01-20T10:24:56.088Z,4.70
2023-01-20T10:27:32.439Z,4.60
2023-01-20T10:30:12.735Z,4.50
2023-01-20T10:33:12.822Z,4.40
2023-01-20T10:35:52.215Z,4.30
2023-01-20T10:38:45.193Z,4.30
2023-01-20T10:41:28.719Z,4.20
2023-01-20T10:44:12.433Z,4.30
2023-01-20T10:47:08.848Z,4.30
2023-01-20T10:50:01.672Z,4.30
2023-01-20T10:53:08.566Z,4.40
2023-01-20T10:56:08.797Z,4.60
2023-01-20T10:58:45.318Z,4.80
2023-01-20T11:01:21.435Z,5.20
2023-01-20T11:03:56.625Z,5.60
2023-01-20T11:06:31.699Z,6.10
2023-01-20T11:09:24.100Z,6.80
2023-01-20T11:12:02.350Z,7.50
2023-01-20T11:14:37.530Z,8.30
2023-01-20T11:17:19.409Z,9.00
2023-01-20T11:19:57.840Z,10.90
2023-01-20T11:22:35.777Z,10.10
2023-01-20T11:25:24.753Z,10.40
2023-01-20T11:27:59.677Z,10.40
2023-01-20T11:30:35.748Z,10.40
2023-01-20T11:33:24.239Z,10.10
2023-01-20T11:36:07.096Z,9.50
2023-01-20T11:38:48.612Z,9.00
2023-01-20T11:41:29.218Z,8.40
2023-01-20T11:44:07.128Z,8.00
2023-01-20T11:46:42.010Z,7.90
2023-01-20T11:49:21.952Z,8.10
2023-01-20T11:51:57.768Z,8.40
2023-01-20T11:54:32.685Z,8.70
2023-01-20T11:57:16.273Z,8.80
2023-01-20T11:59:51.869Z,9.00
2023-01-20T12:02:28.458Z,9.00
2023-01-20T12:05:30.504Z,9.10
2023-01-20T12:08:23.828Z,9.10
2023-01-20T12:11:03.259Z,9.00
2023-01-20T12:14:20.332Z,9.10
2023-01-20T12:17:26.884Z,9.20
2023-01-20T12:20:09.865Z,9.00
2023-01-20T12:23:07.453Z,8.80
2023-01-20T12:25:57.531Z,9.00
2023-01-20T12:28:46.037Z,9.10
2023-01-20T12:31:23.996Z,9.10
2023-01-20T12:34:14.861Z,9.00
2023-01-20T12:37:18.725Z,9.00
2023-01-20T12:40:13.880Z,8.90
2023-01-20T12:43:07.265Z,8.60
2023-01-20T12:46:09.841Z,8.40
2023-01-20T12:49:37.001Z,8.20
2023-01-20T12:52:31.806Z,8.00
2023-01-20T12:55:43.930Z,7.80
2023-01-20T12:58:49.898Z,7.70
2023-01-20T13:01:44.626Z,7.60
2023-01-20T13:04:56.287Z,7.40
2023-01-20T13:07:53.170Z,7.20
2023-01-20T13:10:56.254Z,6.90
2023-01-20T13:13:55.929Z,6.70
2023-01-20T13:16:59.556Z,6.30
2023-01-20T13:19:39.691Z,6.30
2023-01-20T13:22:23.316Z,6.10
2023-01-20T13:24:59.971Z,6.10
2023-01-20T13:27:37.569Z,6.00
2023-01-20T13:30:43.506Z,6.00
2023-01-20T13:33:34.652Z,6.00
2023-01-20T13:36:22.166Z,6.00
2023-01-20T13:39:39.767Z,6.00
2023-01-20T13:42:36.626Z,5.90
2023-01-20T13:45:11.439Z,5.80
2023-01-20T13:47:59.343Z,5.70
2023-01-20T13:50:36.413Z,5.60
2023-01-20T13:53:11.276Z,7.40
2023-01-20T13:55:49.771Z,5.50
2023-01-20T13:58:33.490Z,5.60
2023-01-20T14:01:14.952Z,5.60
2023-01-20T14:04:07.806Z,5.60
2023-01-20T14:06:48.808Z,5.80
2023-01-20T14:09:26.078Z,6.00
2023-01-20T14:12:00.961Z,6.20
2023-01-20T14:14:43.796Z,6.40
2023-01-20T14:17:22.347Z,6.50
2023-01-20T14:19:57.907Z,7.10
2023-01-20T14:22:32.769Z,6.50
2023-01-20T14:25:24.627Z,6.40
2023-01-20T14:27:59.537Z,6.40
2023-01-20T14:30:34.420Z,6.40
2023-01-20T14:33:16.383Z,6.30
2023-01-20T14:35:51.705Z,6.30
2023-01-20T14:38:26.624Z,6.20
2023-01-20T14:41:01.487Z,6.20
2023-01-20T14:43:36.427Z,6.10
2023-01-20T14:46:11.355Z,6.10
2023-01-20T14:48:47.048Z,6.30
2023-01-20T14:51:22.960Z,6.50
2023-01-20T14:54:43.750Z,6.70
2023-01-20T14:57:43.485Z,6.80
2023-01-20T15:00:33.948Z,6.90
2023-01-20T15:03:25.675Z,6.90
2023-01-20T15:06:21.286Z,6.80
2023-01-20T15:09:06.684Z,6.70
2023-01-20T15:11:42.518Z,6.70
2023-01-20T15:14:17.903Z,6.60
2023-01-20T15:16:59.510Z,6.50
2023-01-20T15:19:35.569Z,6.40
2023-01-20T15:22:23.927Z,6.30
2023-01-20T15:25:12.396Z,6.20
2023-01-20T15:27:53.887Z,6.00
2023-01-20T15:30:29.793Z,6.00
2023-01-20T15:33:08.598Z,5.90
2023-01-20T15:35:43.538Z,5.80
2023-01-20T15:38:18.512Z,5.50
2023-01-20T15:40:53.419Z,5.50
2023-01-20T15:43:28.651Z,5.40
2023-01-20T15:46:11.157Z,5.30
2023-01-20T15:48:46.454Z,5.20
2023-01-20T15:51:21.544Z,5.10
2023-01-20T15:53:56.476Z,5.00
2023-01-20T15:56:33.018Z,5.00
2023-01-20T15:59:26.093Z,4.90
2023-01-20T16:02:02.663Z,4.90
2023-01-20T16:04:37.598Z,4.80
2023-01-20T16:07:18.436Z,4.80
2023-01-20T16:09:53.289Z,4.70
2023-01-20T16:12:29.612Z,4.70
2023-01-20T16:15:05.320Z,4.60
2023-01-20T16:17:40.418Z,4.60
2023-01-20T16:20:20.529Z,4.50
2023-01-20T16:22:56.812Z,4.40
2023-01-20T16:25:32.693Z,4.30
2023-01-20T16:28:21.408Z,4.20
2023-01-20T16:30:57.672Z,4.10
2023-01-20T16:33:32.644Z,4.00
2023-01-20T16:36:18.542Z,3.90
2023-01-20T16:38:54.006Z,3.90
2023-01-20T16:41:30.857Z,3.80
2023-01-20T16:44:05.907Z,3.70
2023-01-20T16:46:42.189Z,3.60
2023-01-20T16:49:17.939Z,3.50
2023-01-20T16:51:52.897Z,3.40
2023-01-20T16:54:27.849Z,3.40
2023-01-20T16:57:02.840Z,3.30
2023-01-20T16:59:37.902Z,3.30
2023-01-20T17:02:12.872Z,3.20
2023-01-20T17:04:47.832Z,3.10
2023-01-20T17:07:22.957Z,3.00
2023-01-20T17:09:58.105Z,3.00
2023-01-20T17:12:33.279Z,2.80
2023-01-20T17:15:09.013Z,2.80
2023-01-20T17:17:48.186Z,2.80
2023-01-20T17:20:23.546Z,2.80
2023-01-20T17:22:58.594Z,2.70
2023-01-20T17:25:33.525Z,2.70
2023-01-20T17:28:08.665Z,2.60
2023-01-20T17:30:43.647Z,2.50
2023-01-20T17:33:18.549Z,2.50
2023-01-20T17:36:04.156Z,2.50
2023-01-20T17:38:40.161Z,2.40
2023-01-20T17:41:15.255Z,2.40
2023-01-20T17:43:50.215Z,2.30
2023-01-20T17:46:28.815Z,2.30
2023-01-20T17:49:07.684Z,2.20
2023-01-20T17:51:44.254Z,2.20
2023-01-20T17:54:19.220Z,2.20
2023-01-20T17:56:54.068Z,2.20
2023-01-20T17:59:28.964Z,2.10
2023-01-20T18:02:05.481Z,2.10
2023-01-20T18:04:40.410Z,2.10
2023-01-20T18:07:15.290Z,2.10
2023-01-20T18:09:50.990Z,2.00
2023-01-20T18:12:26.252Z,2.00
2023-01-20T18:15:01.187Z,1.90
2023-01-20T18:17:36.058Z,1.90
2023-01-20T18:20:12.059Z,1.90
2023-01-20T18:22:49.265Z,1.90
2023-01-20T18:25:24.165Z,1.90
2023-01-20T18:27:59.000Z,1.90
2023-01-20T18:30:33.944Z,1.80
2023-01-20T18:33:08.852Z,1.80
2023-01-20T18:35:43.759Z,1.80
2023-01-20T18:38:18.582Z,1.70
2023-01-20T18:40:53.444Z,1.70
2023-01-20T18:43:29.552Z,1.70
2023-01-20T18:46:05.460Z,1.70
2023-01-20T18:48:47.338Z,1.60
2023-01-20T18:51:26.754Z,1.60
2023-01-20T18:54:05.868Z,1.70
2023-01-20T18:56:40.820Z,1.70
2023-01-20T18:59:15.716Z,1.70
2023-01-20T19:01:50.853Z,1.70
2023-01-20T19:04:25.731Z,1.70
2023-01-20T19:07:00.647Z,1.70
2023-01-20T19:09:35.677Z,1.70
2023-01-20T19:12:10.539Z,1.60
2023-01-20T19:14:45.409Z,1.60
2023-01-20T19:17:20.266Z,1.60
2023-01-20T19:19:55.110Z,1.60
2023-01-20T19:22:29.948Z,1.60
2023-01-20T19:25:05.354Z,1.60
2023-01-20T19:27:40.247Z,1.60
2023-01-20T19:30:16.001Z,1.60
2023-01-20T19:32:51.028Z,1.60
2023-01-20T19:35:26.324Z,1.60
2023-01-20T19:38:01.166Z,1.70
2023-01-20T19:40:36.052Z,1.60
2023-01-20T19:43:10.917Z,1.60
2023-01-20T19:45:46.334Z,1.60
2023-01-20T19:48:21.372Z,1.60
2023-01-20T19:51:01.067Z,1.60
2023-01-20T19:53:36.751Z,1.60
2023-01-20T19:56:15.317Z,1.60
2023-01-20T19:58:53.185Z,1.60
2023-01-20T20:01:32.280Z,1.50
2023-01-20T20:04:11.265Z,1.60
2023-01-20T20:06:48.779Z,1.50
2023-01-20T20:09:26.171Z,1.50
2023-01-20T20:12:06.037Z,1.50
2023-01-20T20:14:40.997Z,1.40
2023-01-20T20:17:15.920Z,1.50
2023-01-20T20:19:50.745Z,1.40
2023-01-20T20:22:25.605Z,1.40
2023-01-20T20:25:00.461Z,1.50
2023-01-20T20:27:35.309Z,1.50
2023-01-20T20:30:11.075Z,1.50
2023-01-20T20:32:46.059Z,1.50
2023-01-20T20:35:20.942Z,1.50
2023-01-20T20:37:55.786Z,1.50
2023-01-20T20:40:31.544Z,1.50
2023-01-20T20:43:06.442Z,1.50
2023-01-20T20:45:41.311Z,1.50
2023-01-20T20:48:16.176Z,1.50
2023-01-20T20:50:53.218Z,1.60
2023-01-20T20:53:28.105Z,1.60
2023-01-20T20:56:14.851Z,1.60
2023-01-20T20:59:01.028Z,1.60
2023-01-20T21:01:37.204Z,1.60
2023-01-20T21:04:12.307Z,1.60
2023-01-20T21:06:47.312Z,1.60
2023-01-20T21:09:22.171Z,3.40
2023-01-20T21:11:57.040Z,1.60
2023-01-20T21:14:31.893Z,1.60
2023-01-20T21:17:06.770Z,4.20
2023-01-20T21:19:41.634Z,1.60
2023-01-20T21:22:16.481Z,1.60
2023-01-20T21:24:51.375Z,1.70
2023-01-20T21:27:26.230Z,1.70
2023-01-20T21:30:01.173Z,1.70
2023-01-20T21:32:40.659Z,1.70
2023-01-20T21:35:15.682Z,1.70
2023-01-20T21:37:50.708Z,1.70
2023-01-20T21:40:25.562Z,1.80
2023-01-20T21:43:20.476Z,1.80
2023-01-20T21:45:56.483Z,1.80
2023-01-20T21:48:49.738Z,1.80
2023-01-20T21:51:43.013Z,1.80
2023-01-20T21:54:18.394Z,1.80
2023-01-20T21:56:53.260Z,1.80
2023-01-20T21:59:28.330Z,1.90
2023-01-20T22:02:03.279Z,1.80
2023-01-20T22:04:39.624Z,1.80
2023-01-20T22:07:15.959Z,1.80
2023-01-20T22:09:50.893Z,1.80
2023-01-20T22:12:25.932Z,1.80
2023-01-20T22:15:03.255Z,1.80
2023-01-20T22:17:38.301Z,1.80
2023-01-20T22:20:14.109Z,1.80
2023-01-20T22:22:49.193Z,1.70
2023-01-20T22:25:24.054Z,1.70
2023-01-20T22:27:58.912Z,1.70
2023-01-20T22:30:33.799Z,1.70
2023-01-20T22:33:08.828Z,1.70
2023-01-20T22:35:43.762Z,1.70
2023-01-20T22:38:18.596Z,1.70
2023-01-20T22:40:53.486Z,1.70
2023-01-20T22:43:28.331Z,1.70
2023-01-20T22:46:04.236Z,1.70
2023-01-20T22:48:39.474Z,1.70
2023-01-20T22:51:23.402Z,1.70
2023-01-20T22:54:00.759Z,1.70
2023-01-20T22:56:35.655Z,1.60
2023-01-20T22:59:12.050Z,1.60
2023-01-20T23:01:46.885Z,1.60
2023-01-20T23:04:21.718Z,1.60
2023-01-20T23:06:56.585Z,1.60
2023-01-20T23:09:31.416Z,1.60
2023-01-20T23:12:06.355Z,1.50
2023-01-20T23:14:59.042Z,1.50
2023-01-20T23:17:34.583Z,1.40
2023-01-20T23:20:10.625Z,1.40
2023-01-20T23:22:45.482Z,1.40
2023-01-20T23:25:20.324Z,1.40
2023-01-20T23:27:55.285Z,1.30
2023-01-20T23:30:30.213Z,1.30
2023-01-20T23:33:05.307Z,1.30
2023-01-20T23:35:40.163Z,1.30
2023-01-20T23:38:15.006Z,1.30
2023-01-20T23:40:49.940Z,1.30
2023-01-20T23:43:24.771Z,1.30
2023-01-20T23:46:02.472Z,1.30
2023-01-20T23:48:38.565Z,1.30
2023-01-20T23:51:13.691Z,1.30
2023-01-20T23:53:48.605Z,1.30
2023-01-20T23:56:24.856Z,1.30
2023-01-20T23:58:59.726Z,1.30
